sensor_id;sensor_type;location;lat;lon;timestamp;temperature;humidity
13856;DHT22;6998;53.608;9.958;2022-10-18T00:02:22;14.40;99.90
13856;DHT22;6998;53.608;9.958;2022-10-18T00:04:50;14.40;99.90
13856;DHT22;6998;53.608;9.958;2022-10-18T00:07:17;14.40;99.90
13856;DHT22;6998;53.608;9.958;2022-10-18T00:09:44;14.30;99.90
13856;DHT22;6998;53.608;9.958;2022-10-18T00:12:11;14.30;99.90
13856;DHT22;6998;53.608;9.958;2022-10-18T00:14:38;14.30;99.90
13856;DHT22;6998;53.608;9.958;2022-10-18T00:17:05;14.30;99.90
13856;DHT22;6998;53.608;9.958;2022-10-18T00:19:32;14.30;99.90
13856;DHT22;6998;53.608;9.958;2022-10-18T00:22:00;14.30;99.90
13856;DHT22;6998;53.608;9.958;2022-10-18T00:24:27;14.20;99.90
13856;DHT22;6998;53.608;9.958;2022-10-18T00:26:55;14.20;99.90
13856;DHT22;6998;53.608;9.958;2022-10-18T00:29:22;14.20;99.90
13856;DHT22;6998;53.608;9.958;2022-10-18T00:31:49;14.20;99.90
13856;DHT22;6998;53.608;9.958;2022-10-18T00:34:16;14.20;99.90
13856;DHT22;6998;53.608;9.958;2022-10-18T00:36:43;14.20;99.90
13856;DHT22;6998;53.608;9.958;2022-10-18T00:39:14;14.20;99.90
13856;DHT22;6998;53.608;9.958;2022-10-18T00:41:42;14.20;99.90
13856;DHT22;6998;53.608;9.958;2022-10-18T00:47:15;14.20;99.90
13856;DHT22;6998;53.608;9.958;2022-10-18T00:49:45;14.20;99.90
13856;DHT22;6998;53.608;9.958;2022-10-18T00:52:16;14.10;99.90
13856;DHT22;6998;53.608;9.958;2022-10-18T00:54:46;14.10;99.90
13856;DHT22;6998;53.608;9.958;2022-10-18T00:57:13;14.00;99.90
13856;DHT22;6998;53.608;9.958;2022-10-18T00:59:41;14.00;99.90
13856;DHT22;6998;53.608;9.958;2022-10-18T01:02:08;14.10;99.90
13856;DHT22;6998;53.608;9.958;2022-10-18T01:04:35;14.00;99.90
13856;DHT22;6998;53.608;9.958;2022-10-18T01:07:09;14.10;99.90
13856;DHT22;6998;53.608;9.958;2022-10-18T01:09:43;14.10;99.90
13856;DHT22;6998;53.608;9.958;2022-10-18T01:12:20;14.00;99.90
13856;DHT22;6998;53.608;9.958;2022-10-18T01:14:53;14.00;99.90
13856;DHT22;6998;53.608;9.958;2022-10-18T01:17:27;13.90;99.90
13856;DHT22;6998;53.608;9.958;2022-10-18T01:20:37;13.90;99.90
13856;DHT22;6998;53.608;9.958;2022-10-18T01:23:12;13.80;99.90
13856;DHT22;6998;53.608;9.958;2022-10-18T01:25:49;13.80;99.90
13856;DHT22;6998;53.608;9.958;2022-10-18T01:28:34;13.70;99.90
13856;DHT22;6998;53.608;9.958;2022-10-18T01:31:08;13.70;99.90
13856;DHT22;6998;53.608;9.958;2022-10-18T01:33:40;13.70;99.90
13856;DHT22;6998;53.608;9.958;2022-10-18T01:36:14;13.70;99.90
13856;DHT22;6998;53.608;9.958;2022-10-18T01:38:44;13.70;99.90
13856;DHT22;6998;53.608;9.958;2022-10-18T01:41:12;13.70;99.90
13856;DHT22;6998;53.608;9.958;2022-10-18T01:43:40;13.60;99.90
13856;DHT22;6998;53.608;9.958;2022-10-18T01:46:10;13.60;99.90
13856;DHT22;6998;53.608;9.958;2022-10-18T01:48:39;13.60;99.90
13856;DHT22;6998;53.608;9.958;2022-10-18T01:51:05;13.70;99.90
13856;DHT22;6998;53.608;9.958;2022-10-18T01:53:33;13.70;99.90
13856;DHT22;6998;53.608;9.958;2022-10-18T01:56:22;13.70;99.90
13856;DHT22;6998;53.608;9.958;2022-10-18T01:58:56;13.70;99.90
13856;DHT22;6998;53.608;9.958;2022-10-18T02:01:34;13.70;99.90
13856;DHT22;6998;53.608;9.958;2022-10-18T02:04:11;13.70;99.90
13856;DHT22;6998;53.608;9.958;2022-10-18T02:06:45;13.80;99.90
13856;DHT22;6998;53.608;9.958;2022-10-18T02:09:19;13.70;99.90
13856;DHT22;6998;53.608;9.958;2022-10-18T02:11:51;13.70;99.90
13856;DHT22;6998;53.608;9.958;2022-10-18T02:14:20;13.60;99.90
13856;DHT22;6998;53.608;9.958;2022-10-18T02:16:52;13.60;99.90
13856;DHT22;6998;53.608;9.958;2022-10-18T02:19:23;13.60;99.90
13856;DHT22;6998;53.608;9.958;2022-10-18T02:21:52;13.50;99.90
13856;DHT22;6998;53.608;9.958;2022-10-18T02:24:24;13.50;99.90
13856;DHT22;6998;53.608;9.958;2022-10-18T02:26:53;13.50;99.90
13856;DHT22;6998;53.608;9.958;2022-10-18T02:29:20;13.50;99.90
13856;DHT22;6998;53.608;9.958;2022-10-18T02:31:50;13.40;99.90
13856;DHT22;6998;53.608;9.958;2022-10-18T02:34:21;13.40;99.90
13856;DHT22;6998;53.608;9.958;2022-10-18T02:36:51;13.30;99.90
13856;DHT22;6998;53.608;9.958;2022-10-18T02:39:21;13.30;99.90
13856;DHT22;6998;53.608;9.958;2022-10-18T02:41:48;13.20;99.90
13856;DHT22;6998;53.608;9.958;2022-10-18T02:44:15;13.30;99.90
13856;DHT22;6998;53.608;9.958;2022-10-18T02:46:43;13.30;99.90
13856;DHT22;6998;53.608;9.958;2022-10-18T02:49:12;13.30;99.90
13856;DHT22;6998;53.608;9.958;2022-10-18T02:51:39;13.40;99.90
13856;DHT22;6998;53.608;9.958;2022-10-18T02:54:06;13.30;99.90
13856;DHT22;6998;53.608;9.958;2022-10-18T02:56:33;13.30;99.90
13856;DHT22;6998;53.608;9.958;2022-10-18T02:59:00;13.30;99.90
13856;DHT22;6998;53.608;9.958;2022-10-18T03:01:28;13.30;99.90
13856;DHT22;6998;53.608;9.958;2022-10-18T03:03:54;13.30;99.90
13856;DHT22;6998;53.608;9.958;2022-10-18T03:06:23;13.30;99.90
13856;DHT22;6998;53.608;9.958;2022-10-18T03:08:49;13.30;99.90
13856;DHT22;6998;53.608;9.958;2022-10-18T03:11:16;13.20;99.90
13856;DHT22;6998;53.608;9.958;2022-10-18T03:13:43;13.20;99.90
13856;DHT22;6998;53.608;9.958;2022-10-18T03:16:10;13.30;99.90
13856;DHT22;6998;53.608;9.958;2022-10-18T03:18:37;13.30;99.90
13856;DHT22;6998;53.608;9.958;2022-10-18T03:21:05;13.30;99.90
13856;DHT22;6998;53.608;9.958;2022-10-18T03:23:34;13.40;99.90
13856;DHT22;6998;53.608;9.958;2022-10-18T03:26:01;13.50;99.90
13856;DHT22;6998;53.608;9.958;2022-10-18T03:28:28;13.50;99.90
13856;DHT22;6998;53.608;9.958;2022-10-18T03:30:59;13.50;99.90
13856;DHT22;6998;53.608;9.958;2022-10-18T03:33:26;13.60;99.90
13856;DHT22;6998;53.608;9.958;2022-10-18T03:35:53;13.60;99.90
13856;DHT22;6998;53.608;9.958;2022-10-18T03:38:20;13.60;99.90
13856;DHT22;6998;53.608;9.958;2022-10-18T03:40:48;13.60;99.90
13856;DHT22;6998;53.608;9.958;2022-10-18T03:43:15;13.60;99.90
13856;DHT22;6998;53.608;9.958;2022-10-18T03:45:43;13.60;99.90
13856;DHT22;6998;53.608;9.958;2022-10-18T03:48:10;13.50;99.90
13856;DHT22;6998;53.608;9.958;2022-10-18T03:50:38;13.40;99.90
13856;DHT22;6998;53.608;9.958;2022-10-18T03:53:04;13.40;99.90
13856;DHT22;6998;53.608;9.958;2022-10-18T03:55:32;13.40;99.90
13856;DHT22;6998;53.608;9.958;2022-10-18T03:58:00;13.30;99.90
13856;DHT22;6998;53.608;9.958;2022-10-18T04:00:27;13.30;99.90
13856;DHT22;6998;53.608;9.958;2022-10-18T04:02:54;13.20;99.90
13856;DHT22;6998;53.608;9.958;2022-10-18T04:05:21;13.20;99.90
13856;DHT22;6998;53.608;9.958;2022-10-18T04:07:48;13.10;99.90
13856;DHT22;6998;53.608;9.958;2022-10-18T04:10:15;13.10;99.90
13856;DHT22;6998;53.608;9.958;2022-10-18T04:12:43;13.00;99.90
13856;DHT22;6998;53.608;9.958;2022-10-18T04:15:11;13.00;99.90
13856;DHT22;6998;53.608;9.958;2022-10-18T04:17:38;13.00;99.90
13856;DHT22;6998;53.608;9.958;2022-10-18T04:20:06;13.00;99.90
13856;DHT22;6998;53.608;9.958;2022-10-18T04:22:33;12.90;99.90
13856;DHT22;6998;53.608;9.958;2022-10-18T04:25:00;12.80;99.90
13856;DHT22;6998;53.608;9.958;2022-10-18T04:27:27;12.80;99.90
13856;DHT22;6998;53.608;9.958;2022-10-18T04:29:53;12.70;99.90
13856;DHT22;6998;53.608;9.958;2022-10-18T04:32:22;12.80;99.90
13856;DHT22;6998;53.608;9.958;2022-10-18T04:34:48;12.80;99.90
13856;DHT22;6998;53.608;9.958;2022-10-18T04:37:15;12.80;99.90
13856;DHT22;6998;53.608;9.958;2022-10-18T04:39:43;12.80;99.90
13856;DHT22;6998;53.608;9.958;2022-10-18T04:42:13;12.70;99.90
13856;DHT22;6998;53.608;9.958;2022-10-18T04:44:40;12.80;99.90
13856;DHT22;6998;53.608;9.958;2022-10-18T04:47:07;12.80;99.90
13856;DHT22;6998;53.608;9.958;2022-10-18T04:49:35;12.80;99.90
13856;DHT22;6998;53.608;9.958;2022-10-18T04:52:02;12.70;99.90
13856;DHT22;6998;53.608;9.958;2022-10-18T04:54:29;12.80;99.90
13856;DHT22;6998;53.608;9.958;2022-10-18T04:56:56;12.80;99.90
13856;DHT22;6998;53.608;9.958;2022-10-18T04:59:23;12.80;99.90
13856;DHT22;6998;53.608;9.958;2022-10-18T05:01:49;12.70;99.90
13856;DHT22;6998;53.608;9.958;2022-10-18T05:04:17;12.70;99.90
13856;DHT22;6998;53.608;9.958;2022-10-18T05:06:45;12.70;99.90
13856;DHT22;6998;53.608;9.958;2022-10-18T05:09:12;12.70;99.90
13856;DHT22;6998;53.608;9.958;2022-10-18T05:11:38;12.70;99.90
13856;DHT22;6998;53.608;9.958;2022-10-18T05:14:05;12.80;99.90
13856;DHT22;6998;53.608;9.958;2022-10-18T05:16:34;12.90;99.90
13856;DHT22;6998;53.608;9.958;2022-10-18T05:19:03;12.90;99.90
13856;DHT22;6998;53.608;9.958;2022-10-18T05:21:30;12.90;99.90
13856;DHT22;6998;53.608;9.958;2022-10-18T05:23:58;13.00;99.90
13856;DHT22;6998;53.608;9.958;2022-10-18T05:26:25;13.10;99.90
13856;DHT22;6998;53.608;9.958;2022-10-18T05:28:52;13.10;99.90
13856;DHT22;6998;53.608;9.958;2022-10-18T05:31:19;13.20;99.90
13856;DHT22;6998;53.608;9.958;2022-10-18T05:33:46;13.20;99.90
13856;DHT22;6998;53.608;9.958;2022-10-18T05:36:13;13.30;99.90
13856;DHT22;6998;53.608;9.958;2022-10-18T05:38:40;13.40;99.90
13856;DHT22;6998;53.608;9.958;2022-10-18T05:41:10;13.40;99.90
13856;DHT22;6998;53.608;9.958;2022-10-18T05:43:37;13.40;99.90
13856;DHT22;6998;53.608;9.958;2022-10-18T05:46:04;13.40;99.90
13856;DHT22;6998;53.608;9.958;2022-10-18T05:48:32;13.40;99.90
13856;DHT22;6998;53.608;9.958;2022-10-18T05:51:00;13.40;99.90
13856;DHT22;6998;53.608;9.958;2022-10-18T05:53:27;13.50;99.90
13856;DHT22;6998;53.608;9.958;2022-10-18T05:55:54;13.40;99.90
13856;DHT22;6998;53.608;9.958;2022-10-18T05:58:23;13.40;99.90
13856;DHT22;6998;53.608;9.958;2022-10-18T06:00:50;13.30;99.90
13856;DHT22;6998;53.608;9.958;2022-10-18T06:03:16;13.30;99.90
13856;DHT22;6998;53.608;9.958;2022-10-18T06:05:43;13.40;99.90
13856;DHT22;6998;53.608;9.958;2022-10-18T06:08:10;13.40;99.90
13856;DHT22;6998;53.608;9.958;2022-10-18T06:10:37;13.50;99.90
13856;DHT22;6998;53.608;9.958;2022-10-18T06:13:04;13.50;99.90
13856;DHT22;6998;53.608;9.958;2022-10-18T06:15:32;13.50;99.90
13856;DHT22;6998;53.608;9.958;2022-10-18T06:17:59;13.50;99.90
13856;DHT22;6998;53.608;9.958;2022-10-18T06:20:26;13.40;99.90
13856;DHT22;6998;53.608;9.958;2022-10-18T06:22:53;13.50;99.90
13856;DHT22;6998;53.608;9.958;2022-10-18T06:25:20;13.50;99.90
13856;DHT22;6998;53.608;9.958;2022-10-18T06:27:47;13.50;99.90
13856;DHT22;6998;53.608;9.958;2022-10-18T06:30:14;13.60;99.90
13856;DHT22;6998;53.608;9.958;2022-10-18T06:32:42;13.60;99.90
13856;DHT22;6998;53.608;9.958;2022-10-18T06:35:09;13.60;99.90
13856;DHT22;6998;53.608;9.958;2022-10-18T06:37:36;13.60;99.90
13856;DHT22;6998;53.608;9.958;2022-10-18T06:40:06;13.60;99.90
13856;DHT22;6998;53.608;9.958;2022-10-18T06:42:33;13.60;99.90
13856;DHT22;6998;53.608;9.958;2022-10-18T06:44:59;13.70;99.90
13856;DHT22;6998;53.608;9.958;2022-10-18T06:47:27;13.60;99.90
13856;DHT22;6998;53.608;9.958;2022-10-18T06:49:56;13.70;99.90
13856;DHT22;6998;53.608;9.958;2022-10-18T06:52:23;13.80;99.90
13856;DHT22;6998;53.608;9.958;2022-10-18T06:54:50;13.70;99.90
13856;DHT22;6998;53.608;9.958;2022-10-18T06:57:20;13.70;99.90
13856;DHT22;6998;53.608;9.958;2022-10-18T06:59:47;13.70;99.90
13856;DHT22;6998;53.608;9.958;2022-10-18T07:02:15;13.80;99.90
13856;DHT22;6998;53.608;9.958;2022-10-18T07:04:42;13.80;99.90
13856;DHT22;6998;53.608;9.958;2022-10-18T07:07:12;13.90;99.90
13856;DHT22;6998;53.608;9.958;2022-10-18T07:09:39;13.90;99.90
13856;DHT22;6998;53.608;9.958;2022-10-18T07:12:06;13.90;99.90
13856;DHT22;6998;53.608;9.958;2022-10-18T07:14:36;14.00;99.90
13856;DHT22;6998;53.608;9.958;2022-10-18T07:17:03;14.00;99.90
13856;DHT22;6998;53.608;9.958;2022-10-18T07:19:30;14.00;99.90
13856;DHT22;6998;53.608;9.958;2022-10-18T07:21:58;14.00;99.90
13856;DHT22;6998;53.608;9.958;2022-10-18T07:24:26;14.00;99.90
13856;DHT22;6998;53.608;9.958;2022-10-18T07:26:53;14.00;99.90
13856;DHT22;6998;53.608;9.958;2022-10-18T07:29:20;14.00;99.90
13856;DHT22;6998;53.608;9.958;2022-10-18T07:31:47;14.00;99.90
13856;DHT22;6998;53.608;9.958;2022-10-18T07:34:13;14.10;99.90
13856;DHT22;6998;53.608;9.958;2022-10-18T07:36:41;14.00;99.90
13856;DHT22;6998;53.608;9.958;2022-10-18T07:39:08;14.00;99.90
13856;DHT22;6998;53.608;9.958;2022-10-18T07:41:36;14.10;99.90
13856;DHT22;6998;53.608;9.958;2022-10-18T07:44:04;14.00;99.90
13856;DHT22;6998;53.608;9.958;2022-10-18T07:46:31;14.10;99.90
13856;DHT22;6998;53.608;9.958;2022-10-18T07:48:58;14.10;99.90
13856;DHT22;6998;53.608;9.958;2022-10-18T07:51:25;14.10;99.90
13856;DHT22;6998;53.608;9.958;2022-10-18T07:53:52;14.20;99.90
13856;DHT22;6998;53.608;9.958;2022-10-18T07:56:20;14.20;99.90
13856;DHT22;6998;53.608;9.958;2022-10-18T07:58:50;14.20;99.90
13856;DHT22;6998;53.608;9.958;2022-10-18T08:01:18;14.20;99.90
13856;DHT22;6998;53.608;9.958;2022-10-18T08:03:46;14.20;99.90
13856;DHT22;6998;53.608;9.958;2022-10-18T08:06:15;14.20;99.90
13856;DHT22;6998;53.608;9.958;2022-10-18T08:08:44;14.30;99.90
13856;DHT22;6998;53.608;9.958;2022-10-18T08:11:13;14.30;99.90
13856;DHT22;6998;53.608;9.958;2022-10-18T08:13:40;14.30;99.90
13856;DHT22;6998;53.608;9.958;2022-10-18T08:16:10;14.30;99.90
13856;DHT22;6998;53.608;9.958;2022-10-18T08:18:37;14.40;99.90
13856;DHT22;6998;53.608;9.958;2022-10-18T08:21:06;14.40;99.90
13856;DHT22;6998;53.608;9.958;2022-10-18T08:23:33;14.40;99.90
13856;DHT22;6998;53.608;9.958;2022-10-18T08:26:01;14.50;99.90
13856;DHT22;6998;53.608;9.958;2022-10-18T08:28:28;14.50;99.90
13856;DHT22;6998;53.608;9.958;2022-10-18T08:30:55;14.50;99.90
13856;DHT22;6998;53.608;9.958;2022-10-18T08:33:24;14.60;99.90
